createdAt,value
2023-05-23T00:00:10.106Z,16.15
2023-05-23T00:01:10.105Z,16.13
2023-05-23T00:02:10.110Z,16.16
2023-05-23T00:03:10.244Z,16.12
2023-05-23T00:04:10.084Z,16.12
2023-05-23T00:05:10.036Z,16.13
2023-05-23T00:06:10.036Z,16.12
2023-05-23T00:07:10.025Z,16.10
2023-05-23T00:08:10.008Z,16.01
2023-05-23T00:09:10.109Z,15.97
2023-05-23T00:10:09.990Z,16.08
2023-05-23T00:11:09.980Z,16.08
2023-05-23T00:12:09.956Z,16.01
2023-05-23T00:13:09.940Z,16.04
2023-05-23T00:14:09.934Z,16.00
2023-05-23T00:15:09.946Z,16.00
2023-05-23T00:16:09.929Z,16.04
2023-05-23T00:17:09.958Z,15.97
2023-05-23T00:18:09.889Z,16.01
2023-05-23T00:19:09.977Z,16.04
2023-05-23T00:20:09.867Z,16.01
2023-05-23T00:21:09.856Z,16.08
2023-05-23T00:22:09.860Z,16.05
2023-05-23T00:23:09.847Z,16.04
2023-05-23T00:24:09.825Z,16.09
2023-05-23T00:25:09.940Z,16.04
2023-05-23T00:26:09.797Z,16.09
2023-05-23T00:27:09.793Z,16.08
2023-05-23T00:28:09.809Z,16.13
2023-05-23T00:29:09.760Z,16.05
2023-05-23T00:30:09.757Z,16.01
2023-05-23T00:31:09.827Z,16.08
2023-05-23T00:32:09.733Z,16.00
2023-05-23T00:33:09.744Z,16.00
2023-05-23T00:34:09.709Z,16.04
2023-05-23T00:35:09.708Z,15.97
2023-05-23T00:36:09.688Z,16.01
2023-05-23T00:37:09.675Z,16.04
2023-05-23T00:38:09.662Z,16.01
2023-05-23T00:39:09.656Z,16.02
2023-05-23T00:40:09.686Z,16.04
2023-05-23T00:41:09.766Z,16.08
2023-05-23T00:42:09.632Z,16.09
2023-05-23T00:43:09.649Z,16.08
2023-05-23T00:44:09.604Z,15.98
2023-05-23T00:45:09.610Z,16.00
2023-05-23T00:46:09.596Z,16.00
2023-05-23T00:47:09.564Z,16.00
2023-05-23T00:48:09.552Z,15.95
2023-05-23T00:49:09.540Z,15.97
2023-05-23T00:50:09.536Z,15.94
2023-05-23T00:51:09.529Z,15.97
2023-05-23T00:52:09.519Z,15.97
2023-05-23T00:53:09.504Z,15.95
2023-05-23T00:54:09.482Z,16.00
2023-05-23T00:55:09.471Z,15.92
2023-05-23T00:56:09.514Z,15.95
2023-05-23T00:57:09.565Z,15.92
2023-05-23T00:58:09.446Z,15.97
2023-05-23T00:59:09.417Z,15.94
2023-05-23T01:00:09.419Z,15.91
2023-05-23T01:01:09.412Z,15.90
2023-05-23T01:02:09.415Z,15.86
2023-05-23T01:03:09.446Z,15.84
2023-05-23T01:04:09.522Z,15.86
2023-05-23T01:05:09.358Z,15.91
2023-05-23T01:06:09.362Z,15.83
2023-05-23T01:07:09.360Z,15.94
2023-05-23T01:08:09.318Z,15.86
2023-05-23T01:09:09.304Z,15.97
2023-05-23T01:10:09.296Z,15.90
2023-05-23T01:11:09.315Z,15.86
2023-05-23T01:12:09.284Z,15.91
2023-05-23T01:13:09.372Z,15.94
2023-05-23T01:14:09.252Z,16.00
2023-05-23T01:15:09.238Z,15.90
2023-05-23T01:16:09.249Z,15.92
2023-05-23T01:17:09.222Z,15.79
2023-05-23T01:18:09.239Z,15.88
2023-05-23T01:19:09.211Z,15.86
2023-05-23T01:20:09.204Z,15.84
2023-05-23T01:21:09.168Z,15.94
2023-05-23T01:22:09.174Z,15.88
2023-05-23T01:23:09.145Z,15.83
2023-05-23T01:24:09.134Z,15.91
2023-05-23T01:25:09.119Z,15.92
2023-05-23T01:26:09.119Z,15.97
2023-05-23T01:27:09.111Z,15.90
2023-05-23T01:28:09.090Z,15.84
2023-05-23T01:29:09.193Z,15.88
2023-05-23T01:30:09.061Z,15.84
2023-05-23T01:31:09.051Z,15.67
2023-05-23T01:32:09.082Z,15.73
2023-05-23T01:33:09.070Z,15.65
2023-05-23T01:34:09.016Z,15.68
2023-05-23T01:35:08.999Z,15.65
2023-05-23T01:36:08.999Z,15.68
2023-05-23T01:37:08.986Z,15.73
2023-05-23T01:38:09.014Z,15.70
2023-05-23T01:39:08.958Z,15.77
2023-05-23T01:40:08.950Z,15.59
2023-05-23T01:41:08.950Z,15.72
2023-05-23T01:42:08.929Z,15.67
2023-05-23T01:43:08.953Z,15.58
2023-05-23T01:44:08.912Z,15.57
2023-05-23T01:45:09.013Z,15.57
2023-05-23T01:46:08.976Z,15.64
2023-05-23T01:47:08.890Z,15.62
2023-05-23T01:48:08.937Z,15.62
2023-05-23T01:49:08.904Z,15.68
2023-05-23T01:50:08.839Z,15.61
2023-05-23T01:51:08.822Z,15.77
2023-05-23T01:52:08.814Z,15.68
2023-05-23T01:53:08.819Z,15.68
2023-05-23T01:54:08.791Z,15.70
2023-05-23T01:55:08.798Z,15.65
2023-05-23T01:56:08.765Z,15.51
2023-05-23T01:57:08.753Z,15.61
2023-05-23T01:58:08.770Z,15.49
2023-05-23T01:59:08.736Z,15.64
2023-05-23T02:00:08.728Z,15.59
2023-05-23T02:01:08.873Z,15.62
2023-05-23T02:02:08.747Z,15.49
2023-05-23T02:03:08.802Z,15.58
2023-05-23T02:04:08.676Z,15.61
2023-05-23T02:05:08.683Z,15.52
2023-05-23T02:06:08.664Z,15.58
2023-05-23T02:07:08.644Z,15.58
2023-05-23T02:08:08.637Z,15.57
2023-05-23T02:09:08.637Z,15.55
2023-05-23T02:10:08.614Z,15.57
2023-05-23T02:11:08.601Z,15.57
2023-05-23T02:12:08.596Z,15.52
2023-05-23T02:13:08.578Z,15.49
2023-05-23T02:14:08.572Z,15.46
2023-05-23T02:15:08.576Z,15.40
2023-05-23T02:16:08.547Z,15.37
2023-05-23T02:17:08.750Z,15.46
2023-05-23T02:18:08.596Z,15.39
2023-05-23T02:19:08.720Z,15.42
2023-05-23T02:20:08.532Z,15.29
2023-05-23T02:21:08.518Z,15.31
2023-05-23T02:22:08.475Z,15.35
2023-05-23T02:23:08.462Z,15.39
2023-05-23T02:24:08.482Z,15.35
2023-05-23T02:25:08.467Z,15.37
2023-05-23T02:26:08.445Z,15.40
2023-05-23T02:27:08.424Z,15.42
2023-05-23T02:28:08.406Z,15.42
2023-05-23T02:29:08.398Z,15.37
2023-05-23T02:30:08.399Z,15.36
2023-05-23T02:31:08.441Z,15.31
2023-05-23T02:32:08.376Z,15.39
2023-05-23T02:33:08.507Z,15.35
2023-05-23T02:34:08.347Z,15.37
2023-05-23T02:35:08.332Z,15.39
2023-05-23T02:36:08.323Z,15.37
2023-05-23T02:37:08.323Z,15.40
2023-05-23T02:38:08.299Z,15.39
2023-05-23T02:39:08.294Z,15.40
2023-05-23T02:40:08.286Z,15.39
2023-05-23T02:41:08.258Z,15.44
2023-05-23T02:42:08.249Z,15.37
2023-05-23T02:43:08.236Z,15.42
2023-05-23T02:44:08.236Z,15.40
2023-05-23T02:45:08.225Z,15.39
2023-05-23T02:46:08.280Z,15.31
2023-05-23T02:47:08.198Z,15.21
2023-05-23T02:48:08.303Z,15.25
2023-05-23T02:49:08.316Z,15.15
2023-05-23T02:50:08.165Z,15.17
2023-05-23T02:51:08.156Z,15.25
2023-05-23T02:52:08.151Z,15.25
2023-05-23T02:53:08.116Z,15.33
2023-05-23T02:54:08.111Z,15.25
2023-05-23T02:55:08.097Z,15.24
2023-05-23T02:56:08.113Z,15.27
2023-05-23T02:57:08.128Z,15.33
2023-05-23T02:58:08.063Z,15.24
2023-05-23T02:59:08.047Z,15.25
2023-05-23T03:00:08.043Z,15.19
2023-05-23T03:01:08.362Z,15.04
2023-05-23T03:02:08.130Z,15.07
2023-05-23T03:03:08.128Z,15.17
2023-05-23T03:04:08.051Z,15.04
2023-05-23T03:05:08.096Z,15.07
2023-05-23T03:06:07.963Z,15.10
2023-05-23T03:08:07.952Z,15.03
2023-05-23T03:09:07.934Z,15.18
2023-05-23T03:10:07.927Z,15.11
2023-05-23T03:11:07.905Z,15.07
2023-05-23T03:12:07.894Z,14.96
2023-05-23T03:13:07.886Z,15.04
2023-05-23T03:14:07.900Z,15.00
2023-05-23T03:15:07.884Z,15.06
2023-05-23T03:16:07.885Z,15.04
2023-05-23T03:17:07.872Z,14.99
2023-05-23T03:18:07.862Z,15.06
2023-05-23T03:19:07.832Z,15.04
2023-05-23T03:20:07.810Z,15.03
2023-05-23T03:21:07.942Z,15.00
2023-05-23T03:22:07.789Z,15.00
2023-05-23T03:23:07.783Z,14.91
2023-05-23T03:24:07.762Z,14.84
2023-05-23T03:25:07.772Z,14.92
2023-05-23T03:26:07.762Z,14.82
2023-05-23T03:27:07.733Z,14.88
2023-05-23T03:28:07.715Z,14.81
2023-05-23T03:29:07.710Z,14.89
2023-05-23T03:30:07.697Z,14.94
2023-05-23T03:31:07.699Z,14.88
2023-05-23T03:32:07.730Z,14.88
2023-05-23T03:33:07.802Z,14.85
2023-05-23T03:34:07.660Z,14.89
2023-05-23T03:35:07.666Z,14.96
2023-05-23T03:36:07.641Z,14.85
2023-05-23T03:37:07.737Z,14.94
2023-05-23T03:38:07.617Z,14.96
2023-05-23T03:39:07.593Z,14.92
2023-05-23T03:40:07.584Z,14.97
2023-05-23T03:41:07.582Z,15.02
2023-05-23T03:42:07.559Z,15.00
2023-05-23T03:43:07.549Z,14.99
2023-05-23T03:44:07.536Z,14.97
2023-05-23T03:45:07.523Z,14.86
2023-05-23T03:46:07.588Z,14.82
2023-05-23T03:47:07.513Z,14.86
2023-05-23T03:48:07.536Z,14.88
2023-05-23T03:49:07.474Z,14.84
2023-05-23T03:50:07.462Z,14.86
2023-05-23T03:51:07.473Z,14.92
2023-05-23T03:52:07.453Z,14.91
2023-05-23T03:53:07.561Z,14.85
2023-05-23T03:54:07.430Z,14.84
2023-05-23T03:55:07.425Z,14.73
2023-05-23T03:56:07.426Z,14.84
2023-05-23T03:57:07.396Z,14.72
2023-05-23T03:58:07.375Z,14.77
2023-05-23T03:59:07.356Z,14.79
2023-05-23T04:00:07.349Z,14.79
2023-05-23T04:01:07.344Z,14.73
2023-05-23T04:02:07.394Z,14.72
2023-05-23T04:03:07.520Z,14.79
2023-05-23T04:04:07.341Z,14.81
2023-05-23T04:05:07.295Z,14.82
2023-05-23T04:06:07.281Z,14.79
2023-05-23T04:07:07.265Z,14.85
2023-05-23T04:08:07.283Z,14.81
2023-05-23T04:09:07.403Z,14.86
2023-05-23T04:10:07.256Z,14.91
2023-05-23T04:11:07.216Z,14.88
2023-05-23T04:12:07.209Z,14.85
2023-05-23T04:13:07.231Z,14.82
2023-05-23T04:14:07.192Z,14.85
2023-05-23T04:15:07.177Z,14.92
2023-05-23T04:16:07.217Z,14.79
2023-05-23T04:17:07.154Z,14.77
2023-05-23T04:18:07.190Z,14.65
2023-05-23T04:19:07.172Z,14.70
2023-05-23T04:20:07.144Z,14.60
2023-05-23T04:21:07.132Z,14.65
2023-05-23T04:22:07.122Z,14.65
2023-05-23T04:23:07.124Z,14.65
2023-05-23T04:24:07.111Z,14.62
2023-05-23T04:25:07.193Z,14.50
2023-05-23T04:26:07.065Z,14.53
2023-05-23T04:27:07.089Z,14.59
2023-05-23T04:28:07.045Z,14.55
2023-05-23T04:29:07.043Z,14.62
2023-05-23T04:30:07.029Z,14.62
2023-05-23T04:31:07.065Z,14.58
2023-05-23T04:32:07.004Z,14.62
2023-05-23T04:33:07.026Z,14.51
2023-05-23T04:34:06.968Z,14.59
2023-05-23T04:35:06.957Z,14.59
2023-05-23T04:36:06.943Z,14.59
2023-05-23T04:37:06.963Z,14.59
2023-05-23T04:38:06.926Z,14.48
2023-05-23T04:39:06.924Z,14.45
2023-05-23T04:40:06.902Z,14.54
2023-05-23T04:41:07.037Z,14.47
2023-05-23T04:42:06.896Z,14.48
2023-05-23T04:43:06.872Z,14.48
2023-05-23T04:44:06.877Z,14.54
2023-05-23T04:45:06.856Z,14.53
2023-05-23T04:46:06.840Z,14.45
2023-05-23T04:47:06.848Z,14.55
2023-05-23T04:48:06.860Z,14.54
2023-05-23T04:49:06.855Z,14.68
2023-05-23T04:50:06.793Z,14.65
2023-05-23T04:51:06.783Z,14.60
2023-05-23T04:52:06.766Z,14.51
2023-05-23T04:53:06.783Z,14.55
2023-05-23T04:54:06.761Z,14.55
2023-05-23T04:55:06.756Z,14.51
2023-05-23T04:56:06.725Z,14.55
2023-05-23T04:57:06.861Z,14.54
2023-05-23T04:58:06.701Z,14.48
2023-05-23T04:59:06.707Z,14.55
2023-05-23T05:00:06.704Z,14.53
2023-05-23T05:01:06.717Z,14.59
2023-05-23T05:02:06.653Z,14.54
2023-05-23T05:03:06.704Z,14.54
2023-05-23T05:04:06.689Z,14.62
2023-05-23T05:05:06.654Z,14.53
2023-05-23T05:06:06.606Z,14.60
2023-05-23T05:07:06.630Z,14.63
2023-05-23T05:08:06.585Z,14.62
2023-05-23T05:09:06.606Z,14.59
2023-05-23T05:10:06.566Z,14.55
2023-05-23T05:11:06.563Z,14.51
2023-05-23T05:12:06.542Z,14.48
2023-05-23T05:13:06.674Z,14.54
2023-05-23T05:14:06.521Z,14.55
2023-05-23T05:15:06.517Z,14.55
2023-05-23T05:16:06.526Z,14.45
2023-05-23T05:17:06.515Z,14.35
2023-05-23T05:18:06.515Z,14.35
2023-05-23T05:19:06.505Z,14.35
2023-05-23T05:20:06.446Z,14.33
2023-05-23T05:21:06.527Z,14.28
2023-05-23T05:22:06.447Z,14.29
2023-05-23T05:23:06.422Z,14.30
2023-05-23T05:24:06.405Z,14.29
2023-05-23T05:25:06.419Z,14.22
2023-05-23T05:26:06.408Z,14.17
2023-05-23T05:27:06.413Z,14.15
2023-05-23T05:28:06.384Z,14.04
2023-05-23T05:29:06.474Z,14.05
2023-05-23T05:30:06.336Z,14.00
2023-05-23T05:31:06.369Z,14.05
2023-05-23T05:32:06.322Z,14.07
2023-05-23T05:33:06.708Z,13.89
2023-05-23T05:34:06.295Z,13.95
2023-05-23T05:35:06.299Z,13.93
2023-05-23T05:36:06.271Z,13.95
2023-05-23T05:37:06.285Z,13.92
2023-05-23T05:38:06.245Z,13.95
2023-05-23T05:39:06.255Z,13.93
2023-05-23T05:40:06.251Z,13.81
2023-05-23T05:41:08.203Z,13.78
2023-05-23T05:42:06.259Z,13.83
2023-05-23T05:43:06.198Z,13.79
2023-05-23T05:44:06.205Z,13.72
2023-05-23T05:45:06.286Z,13.72
2023-05-23T05:46:06.212Z,13.74
2023-05-23T05:47:06.164Z,13.71
2023-05-23T05:48:06.233Z,13.85
2023-05-23T05:49:06.137Z,13.87
2023-05-23T05:50:06.124Z,13.83
2023-05-23T05:51:06.126Z,13.77
2023-05-23T05:52:06.101Z,13.81
2023-05-23T05:53:06.084Z,13.79
2023-05-23T05:54:06.070Z,13.78
2023-05-23T05:55:06.075Z,13.79
2023-05-23T05:56:06.068Z,13.75
2023-05-23T05:57:06.052Z,13.78
2023-05-23T05:58:06.021Z,13.79
2023-05-23T05:59:06.022Z,13.85
2023-05-23T06:00:06.017Z,13.72
2023-05-23T06:01:06.146Z,13.70
2023-05-23T06:02:05.997Z,13.71
2023-05-23T06:03:06.063Z,13.63
2023-05-23T06:04:06.085Z,13.60
2023-05-23T06:05:05.966Z,13.68
2023-05-23T06:06:05.942Z,13.75
2023-05-23T06:07:05.930Z,13.85
2023-05-23T06:08:05.932Z,13.85
2023-05-23T06:09:05.902Z,13.70
2023-05-23T06:10:05.904Z,13.81
2023-05-23T06:11:05.882Z,13.72
2023-05-23T06:12:05.869Z,13.83
2023-05-23T06:13:05.871Z,13.67
2023-05-23T06:14:05.875Z,13.75
2023-05-23T06:15:05.839Z,13.75
2023-05-23T06:16:05.863Z,13.81
2023-05-23T06:17:05.937Z,13.79
2023-05-23T06:18:05.899Z,13.78
2023-05-23T06:19:05.846Z,13.92
2023-05-23T06:20:05.787Z,13.81
2023-05-23T06:21:05.780Z,13.90
2023-05-23T06:22:05.758Z,13.79
2023-05-23T06:23:05.794Z,13.81
2023-05-23T06:24:05.741Z,13.92
2023-05-23T06:25:05.744Z,13.78
2023-05-23T06:26:05.718Z,13.87
2023-05-23T06:27:05.726Z,13.92
2023-05-23T06:28:05.691Z,13.78
2023-05-23T06:29:05.689Z,13.81
2023-05-23T06:30:05.688Z,13.77
2023-05-23T06:31:05.669Z,13.77
2023-05-23T06:32:05.717Z,13.81
2023-05-23T06:33:05.803Z,13.68
2023-05-23T06:34:05.637Z,13.74
2023-05-23T06:35:05.611Z,13.71
2023-05-23T06:36:05.699Z,13.70
2023-05-23T06:37:05.609Z,13.67
2023-05-23T06:38:05.574Z,13.75
2023-05-23T06:39:05.589Z,13.67
2023-05-23T06:40:05.564Z,13.63
2023-05-23T06:41:05.547Z,13.68
2023-05-23T06:42:05.556Z,13.60
2023-05-23T06:43:05.521Z,13.60
2023-05-23T06:44:05.520Z,13.63
2023-05-23T06:45:05.497Z,13.67
2023-05-23T06:46:05.601Z,13.62
2023-05-23T06:47:05.509Z,13.72
2023-05-23T06:48:05.520Z,13.65
2023-05-23T06:49:14.234Z,13.72
2023-05-23T06:50:06.444Z,13.72
2023-05-23T06:51:05.499Z,13.78
2023-05-23T06:52:05.413Z,13.74
2023-05-23T06:53:05.434Z,13.78
2023-05-23T06:54:05.407Z,13.77
2023-05-23T06:55:05.397Z,13.79
2023-05-23T06:56:05.370Z,13.79
2023-05-23T06:57:05.383Z,13.81
2023-05-23T06:58:05.342Z,13.75
2023-05-23T06:59:05.346Z,13.90
2023-05-23T07:00:05.327Z,13.81
2023-05-23T07:01:05.370Z,13.86
2023-05-23T07:02:05.303Z,13.81
2023-05-23T07:03:05.336Z,13.81
2023-05-23T07:04:05.282Z,13.87
2023-05-23T07:05:05.520Z,13.92
2023-05-23T07:06:05.268Z,13.90
2023-05-23T07:07:05.251Z,13.92
2023-05-23T07:08:05.256Z,13.89
2023-05-23T07:09:05.251Z,13.90
2023-05-23T07:10:05.209Z,13.78
2023-05-23T07:11:05.201Z,13.77
2023-05-23T07:12:05.192Z,13.70
2023-05-23T07:13:05.186Z,13.67
2023-05-23T07:14:05.211Z,13.67
2023-05-23T07:15:05.161Z,13.65
2023-05-23T07:16:05.152Z,13.74
2023-05-23T07:17:05.178Z,13.67
2023-05-23T07:18:05.156Z,13.68
2023-05-23T07:19:05.212Z,13.70
2023-05-23T07:20:05.128Z,13.71
2023-05-23T07:21:05.309Z,13.71
2023-05-23T07:22:05.089Z,13.65
2023-05-23T07:23:05.065Z,13.63
2023-05-23T07:24:05.051Z,13.63
2023-05-23T07:25:05.044Z,13.63
2023-05-23T07:26:05.073Z,13.63
2023-05-23T07:27:05.033Z,13.65
2023-05-23T07:28:05.010Z,13.67
2023-05-23T07:29:05.005Z,13.71
2023-05-23T07:30:04.981Z,13.62
2023-05-23T07:31:05.029Z,13.67
2023-05-23T07:32:04.981Z,13.68
2023-05-23T07:33:05.045Z,13.63
2023-05-23T07:34:04.937Z,13.65
2023-05-23T07:35:04.934Z,13.70
2023-05-23T07:36:04.941Z,13.68
2023-05-23T07:37:04.936Z,13.62
2023-05-23T07:38:05.304Z,13.62
2023-05-23T07:39:04.892Z,13.56
2023-05-23T07:40:04.949Z,13.56
2023-05-23T07:41:11.536Z,13.67
2023-05-23T07:42:05.849Z,13.59
2023-05-23T07:43:04.846Z,13.60
2023-05-23T07:44:04.858Z,13.44
2023-05-23T07:45:04.830Z,13.54
2023-05-23T07:46:04.894Z,13.47
2023-05-23T07:47:04.945Z,13.56
2023-05-23T07:48:04.841Z,13.49
2023-05-23T07:49:04.768Z,13.50
2023-05-23T07:50:04.781Z,13.42
2023-05-23T07:51:04.758Z,13.42
2023-05-23T07:52:04.767Z,13.56
2023-05-23T07:53:04.748Z,13.50
2023-05-23T07:54:04.751Z,13.49
2023-05-23T07:55:04.736Z,13.46
2023-05-23T07:56:04.697Z,13.52
2023-05-23T07:57:04.686Z,13.44
2023-05-23T07:58:04.741Z,13.52
2023-05-23T07:59:04.671Z,13.42
2023-05-23T08:00:04.650Z,13.50
2023-05-23T08:01:04.640Z,13.38
2023-05-23T08:02:04.683Z,13.44
2023-05-23T08:03:04.641Z,13.39
2023-05-23T08:04:04.657Z,13.47
2023-05-23T08:05:04.586Z,13.38
2023-05-23T08:06:04.583Z,13.38
2023-05-23T08:07:06.072Z,13.38
2023-05-23T08:08:04.596Z,13.37
2023-05-23T08:09:04.572Z,13.33
2023-05-23T08:10:04.544Z,13.38
2023-05-23T08:11:04.525Z,13.39
2023-05-23T08:12:04.537Z,13.30
2023-05-23T08:13:04.509Z,13.28
2023-05-23T08:14:04.508Z,13.35
2023-05-23T08:15:04.485Z,13.28
2023-05-23T08:16:04.508Z,13.35
2023-05-23T08:17:04.575Z,13.35
2023-05-23T08:18:04.651Z,13.30
2023-05-23T08:19:04.446Z,13.20
2023-05-23T08:20:04.454Z,13.22
2023-05-23T08:21:04.418Z,13.09
2023-05-23T08:22:04.401Z,13.13
2023-05-23T08:23:04.391Z,13.18
2023-05-23T08:24:04.384Z,13.15
2023-05-23T08:25:04.406Z,13.09
2023-05-23T08:26:04.384Z,13.19
2023-05-23T08:27:04.347Z,13.18
2023-05-23T08:28:04.419Z,13.15
2023-05-23T08:29:04.328Z,13.19
2023-05-23T08:30:04.319Z,13.25
2023-05-23T08:31:04.316Z,13.11
2023-05-23T08:32:04.342Z,13.18
2023-05-23T08:33:04.315Z,13.20
2023-05-23T08:34:04.298Z,13.33
2023-05-23T08:35:04.264Z,13.39
2023-05-23T08:36:04.268Z,13.42
2023-05-23T08:37:04.238Z,13.31
2023-05-23T08:38:04.286Z,13.20
2023-05-23T08:39:04.213Z,13.31
2023-05-23T08:40:04.221Z,13.31
2023-05-23T08:41:04.433Z,13.33
2023-05-23T08:42:04.217Z,13.35
2023-05-23T08:43:04.215Z,13.31
2023-05-23T08:44:04.318Z,13.18
2023-05-23T08:45:04.143Z,13.20
2023-05-23T08:46:04.213Z,13.25
2023-05-23T08:47:04.122Z,13.27
2023-05-23T08:48:04.387Z,13.33
2023-05-23T08:49:04.104Z,13.38
2023-05-23T08:50:04.114Z,13.37
2023-05-23T08:51:04.112Z,13.38
2023-05-23T08:52:04.073Z,13.42
2023-05-23T08:53:04.132Z,13.30
2023-05-23T08:54:04.072Z,13.33
2023-05-23T08:55:05.733Z,13.31
2023-05-23T08:56:04.033Z,13.31
2023-05-23T08:57:04.029Z,13.42
2023-05-23T08:58:04.049Z,13.56
2023-05-23T08:59:04.011Z,13.52
2023-05-23T09:00:06.251Z,13.65
2023-05-23T09:01:04.066Z,13.71
2023-05-23T09:02:03.981Z,13.83
2023-05-23T09:03:04.023Z,13.89
2023-05-23T09:04:04.048Z,13.90
2023-05-23T09:05:03.926Z,14.05
2023-05-23T09:06:03.984Z,14.03
2023-05-23T09:07:03.916Z,14.07
2023-05-23T09:08:03.893Z,13.99
2023-05-23T09:09:03.876Z,14.05
2023-05-23T09:10:03.875Z,14.10
2023-05-23T09:11:03.859Z,14.15
2023-05-23T09:12:03.854Z,14.18
2023-05-23T09:13:03.853Z,14.20
2023-05-23T09:14:03.832Z,14.22
2023-05-23T09:15:03.841Z,14.22
2023-05-23T09:16:03.856Z,14.30
2023-05-23T09:17:04.713Z,14.29
2023-05-23T09:18:03.832Z,14.29
2023-05-23T09:19:03.775Z,14.25
2023-05-23T09:20:03.763Z,14.08
2023-05-23T09:21:03.747Z,14.11
2023-05-23T09:22:03.739Z,14.07
2023-05-23T09:23:03.905Z,14.05
2023-05-23T09:24:03.705Z,13.95
2023-05-23T09:25:03.751Z,14.05
2023-05-23T09:26:03.681Z,14.05
2023-05-23T09:27:03.677Z,14.03
2023-05-23T09:28:03.689Z,14.05
2023-05-23T09:29:03.684Z,14.08
2023-05-23T09:30:03.643Z,14.18
2023-05-23T09:31:03.641Z,14.18
2023-05-23T09:32:03.804Z,14.15
2023-05-23T09:33:05.841Z,14.15
2023-05-23T09:34:03.604Z,14.26
2023-05-23T09:35:03.595Z,14.29
2023-05-23T09:36:03.571Z,14.35
2023-05-23T09:37:03.581Z,14.37
2023-05-23T09:38:03.557Z,14.33
2023-05-23T09:39:03.557Z,14.43
2023-05-23T09:40:03.584Z,14.48
2023-05-23T09:41:03.523Z,14.47
2023-05-23T09:42:03.506Z,14.47
2023-05-23T09:43:03.490Z,14.51
2023-05-23T09:44:03.489Z,14.53
2023-05-23T09:45:04.759Z,14.50
2023-05-23T09:46:03.467Z,14.45
2023-05-23T09:47:03.498Z,14.47
2023-05-23T09:48:03.488Z,14.40
2023-05-23T09:49:03.446Z,14.44
2023-05-23T09:50:03.422Z,14.37
2023-05-23T09:51:03.692Z,14.40
2023-05-23T09:52:03.435Z,14.47
2023-05-23T09:53:03.388Z,14.40
2023-05-23T09:54:03.373Z,14.40
2023-05-23T09:55:03.354Z,14.45
2023-05-23T09:56:03.384Z,14.32
2023-05-23T09:57:03.362Z,14.35
2023-05-23T09:58:03.364Z,14.44
2023-05-23T09:59:03.314Z,14.45
2023-05-23T10:00:03.308Z,14.33
2023-05-23T10:01:03.391Z,14.30
2023-05-23T10:02:03.282Z,14.30
2023-05-23T10:03:03.315Z,14.29
2023-05-23T10:04:03.293Z,14.28
2023-05-23T10:05:03.253Z,14.35
2023-05-23T10:06:03.231Z,14.30
2023-05-23T10:07:03.249Z,14.36
2023-05-23T10:08:03.229Z,14.29
2023-05-23T10:09:03.202Z,14.32
2023-05-23T10:10:03.191Z,14.28
2023-05-23T10:11:03.181Z,14.40
2023-05-23T10:12:03.166Z,14.37
2023-05-23T10:13:03.172Z,14.51
2023-05-23T10:14:03.154Z,14.51
2023-05-23T10:15:03.133Z,14.51
2023-05-23T10:16:03.166Z,14.44
2023-05-23T10:17:03.162Z,14.59
2023-05-23T10:18:03.178Z,14.55
2023-05-23T10:19:03.142Z,14.59
2023-05-23T10:20:03.087Z,14.48
2023-05-23T10:21:03.063Z,14.63
2023-05-23T10:22:03.061Z,14.51
2023-05-23T10:23:03.090Z,14.54
2023-05-23T10:24:03.052Z,14.59
2023-05-23T10:25:03.013Z,14.55
2023-05-23T10:26:03.006Z,14.59
2023-05-23T10:27:02.988Z,14.63
2023-05-23T10:28:04.496Z,14.70
2023-05-23T10:29:02.981Z,14.78
2023-05-23T10:30:02.970Z,14.82
2023-05-23T10:31:03.029Z,15.06
2023-05-23T10:32:02.944Z,15.21
2023-05-23T10:33:03.086Z,15.57
2023-05-23T10:34:02.932Z,15.58
2023-05-23T10:35:02.920Z,15.55
2023-05-23T10:36:02.947Z,15.57
2023-05-23T10:37:02.877Z,15.70
2023-05-23T10:38:02.875Z,15.97
2023-05-23T10:39:02.865Z,16.12
2023-05-23T10:40:02.846Z,16.21
2023-05-23T10:41:02.846Z,16.39
2023-05-23T10:42:02.825Z,16.46
2023-05-23T10:43:02.808Z,16.39
2023-05-23T10:44:02.816Z,16.43
2023-05-23T10:45:02.780Z,16.47
2023-05-23T10:46:02.920Z,16.56
2023-05-23T10:47:02.969Z,16.51
2023-05-23T10:48:02.791Z,16.33
2023-05-23T10:49:02.774Z,16.09
2023-05-23T10:50:02.732Z,16.04
2023-05-23T10:51:02.716Z,15.98
2023-05-23T10:52:02.715Z,15.95
2023-05-23T10:53:02.689Z,15.90
2023-05-23T10:54:02.686Z,15.88
2023-05-23T10:55:02.715Z,15.82
2023-05-23T10:56:02.663Z,15.75
2023-05-23T10:57:02.665Z,15.79
2023-05-23T10:58:02.640Z,15.83
2023-05-23T10:59:02.628Z,15.90
2023-05-23T11:00:02.615Z,16.15
2023-05-23T11:01:02.650Z,16.38
2023-05-23T11:02:02.643Z,16.58
2023-05-23T11:03:02.647Z,16.87
2023-05-23T11:04:02.665Z,16.99
2023-05-23T11:05:02.660Z,17.15
2023-05-23T11:06:02.555Z,17.38
2023-05-23T11:07:02.548Z,17.45
2023-05-23T11:08:02.529Z,17.34
2023-05-23T11:09:03.299Z,17.27
2023-05-23T11:10:02.503Z,17.20
2023-05-23T11:11:02.484Z,17.22
2023-05-23T11:12:02.517Z,17.24
2023-05-23T11:13:02.526Z,17.24
2023-05-23T11:14:02.479Z,17.41
2023-05-23T11:15:02.461Z,17.41
2023-05-23T11:16:02.479Z,17.42
2023-05-23T11:17:02.448Z,17.24
2023-05-23T11:18:02.478Z,17.16
2023-05-23T11:19:02.417Z,17.05
2023-05-23T11:20:02.390Z,17.11
2023-05-23T11:21:02.413Z,16.97
2023-05-23T11:22:02.384Z,16.94
2023-05-23T11:23:02.377Z,16.81
2023-05-23T11:24:02.363Z,16.78
2023-05-23T11:25:02.327Z,16.89
2023-05-23T11:26:02.325Z,16.89
2023-05-23T11:27:02.323Z,16.99
2023-05-23T11:28:02.293Z,16.97
2023-05-23T11:29:02.288Z,16.97
2023-05-23T11:30:02.298Z,16.91
2023-05-23T11:31:02.288Z,16.84
2023-05-23T11:32:02.282Z,16.72
2023-05-23T11:33:02.355Z,16.58
2023-05-23T11:34:02.234Z,16.51
2023-05-23T11:35:02.229Z,16.49
2023-05-23T11:36:02.201Z,16.41
2023-05-23T11:37:02.211Z,16.47
2023-05-23T11:38:02.213Z,16.49
2023-05-23T11:39:02.184Z,16.47
2023-05-23T11:40:02.163Z,16.50
2023-05-23T11:41:02.147Z,16.58
2023-05-23T11:42:02.150Z,16.66
2023-05-23T11:43:02.156Z,16.64
2023-05-23T11:44:02.135Z,16.78
2023-05-23T11:45:02.099Z,17.02
2023-05-23T11:46:02.126Z,17.14
2023-05-23T11:47:02.110Z,17.23
2023-05-23T11:48:02.172Z,17.33
2023-05-23T11:49:02.091Z,17.34
2023-05-23T11:50:02.080Z,17.57
2023-05-23T11:51:02.045Z,17.60
2023-05-23T11:52:02.034Z,17.56
2023-05-23T11:53:02.046Z,17.64
2023-05-23T11:54:02.045Z,17.60
2023-05-23T11:55:03.950Z,17.52
2023-05-23T11:56:01.999Z,17.51
2023-05-23T11:57:01.983Z,17.45
2023-05-23T11:58:01.966Z,17.39
2023-05-23T11:59:01.941Z,17.23
2023-05-23T12:00:01.937Z,17.23
2023-05-23T12:01:01.932Z,17.27
2023-05-23T12:02:01.929Z,17.27
2023-05-23T12:03:01.938Z,17.34
2023-05-23T12:04:01.969Z,17.64
2023-05-23T12:05:01.933Z,17.63
2023-05-23T12:06:01.928Z,17.74
2023-05-23T12:07:01.906Z,17.67
2023-05-23T12:08:01.843Z,17.79
2023-05-23T12:09:01.849Z,17.82
2023-05-23T12:10:01.816Z,17.95
2023-05-23T12:11:01.810Z,17.80
2023-05-23T12:12:01.803Z,17.82
2023-05-23T12:13:01.798Z,17.80
2023-05-23T12:14:01.780Z,17.72
2023-05-23T12:15:01.765Z,17.79
2023-05-23T12:16:01.901Z,17.86
2023-05-23T12:17:01.749Z,17.79
2023-05-23T12:18:02.266Z,17.71
2023-05-23T12:19:01.752Z,17.79
2023-05-23T12:20:01.703Z,17.83
2023-05-23T12:21:01.691Z,17.98
2023-05-23T12:22:01.736Z,17.90
2023-05-23T12:23:01.670Z,17.79
2023-05-23T12:24:01.663Z,17.64
2023-05-23T12:25:01.664Z,17.68
2023-05-23T12:26:01.672Z,17.59
2023-05-23T12:27:01.645Z,17.57
2023-05-23T12:28:01.622Z,17.64
2023-05-23T12:29:01.614Z,17.60
2023-05-23T12:30:01.637Z,17.67
2023-05-23T12:31:01.693Z,17.57
2023-05-23T12:32:01.626Z,17.56
2023-05-23T12:33:01.619Z,17.70
2023-05-23T12:34:01.565Z,17.72
2023-05-23T12:35:01.560Z,17.82
2023-05-23T12:36:01.551Z,17.79
2023-05-23T12:37:17.948Z,17.82
2023-05-23T12:38:02.520Z,17.76
2023-05-23T12:39:01.504Z,17.60
2023-05-23T12:40:01.521Z,17.65
2023-05-23T12:41:01.493Z,17.59
2023-05-23T12:42:01.468Z,17.59
2023-05-23T12:43:01.464Z,17.48
2023-05-23T12:44:01.452Z,17.36
2023-05-23T12:45:01.439Z,17.38
2023-05-23T12:46:01.417Z,17.30
2023-05-23T12:47:01.552Z,17.24
2023-05-23T12:48:01.462Z,17.31
2023-05-23T12:49:01.378Z,17.22
2023-05-23T12:50:01.366Z,17.26
2023-05-23T12:51:01.360Z,17.26
2023-05-23T12:52:01.350Z,17.39
2023-05-23T12:53:01.335Z,17.39